sensor_id;sensor_type;location;lat;lon;timestamp;temperature;humidity
55369;DHT22;41247;49.736;8.752;2023-02-28T00:00:38;-3.20;99.90
55369;DHT22;41247;49.736;8.752;2023-02-28T00:04:19;-3.20;99.90
55369;DHT22;41247;49.736;8.752;2023-02-28T00:07:59;-3.30;99.90
55369;DHT22;41247;49.736;8.752;2023-02-28T00:11:40;-3.30;99.90
55369;DHT22;41247;49.736;8.752;2023-02-28T00:15:20;-3.40;99.90
55369;DHT22;41247;49.736;8.752;2023-02-28T00:19:01;-3.40;99.90
55369;DHT22;41247;49.736;8.752;2023-02-28T00:22:44;-3.50;99.90
55369;DHT22;41247;49.736;8.752;2023-02-28T00:26:26;-3.50;99.90
55369;DHT22;41247;49.736;8.752;2023-02-28T00:30:10;-3.60;99.90
55369;DHT22;41247;49.736;8.752;2023-02-28T00:33:52;-3.60;99.90
55369;DHT22;41247;49.736;8.752;2023-02-28T00:37:33;-3.60;99.90
55369;DHT22;41247;49.736;8.752;2023-02-28T00:41:14;-3.60;99.90
55369;DHT22;41247;49.736;8.752;2023-02-28T00:44:54;-3.70;99.90
55369;DHT22;41247;49.736;8.752;2023-02-28T00:48:35;-3.80;99.90
55369;DHT22;41247;49.736;8.752;2023-02-28T00:52:16;-3.80;99.90
55369;DHT22;41247;49.736;8.752;2023-02-28T00:55:57;-3.90;99.90
55369;DHT22;41247;49.736;8.752;2023-02-28T00:59:37;-3.90;99.90
55369;DHT22;41247;49.736;8.752;2023-02-28T01:03:19;-3.90;99.90
55369;DHT22;41247;49.736;8.752;2023-02-28T01:07:00;-4.00;99.90
55369;DHT22;41247;49.736;8.752;2023-02-28T01:10:41;-4.00;99.90
55369;DHT22;41247;49.736;8.752;2023-02-28T01:14:22;-4.00;99.90
55369;DHT22;41247;49.736;8.752;2023-02-28T01:18:03;-4.00;99.90
55369;DHT22;41247;49.736;8.752;2023-02-28T01:21:44;-4.00;99.90
55369;DHT22;41247;49.736;8.752;2023-02-28T01:25:25;-4.00;99.90
55369;DHT22;41247;49.736;8.752;2023-02-28T01:29:05;-4.00;99.90
55369;DHT22;41247;49.736;8.752;2023-02-28T01:32:46;-4.00;99.90
55369;DHT22;41247;49.736;8.752;2023-02-28T01:36:27;-4.00;99.90
55369;DHT22;41247;49.736;8.752;2023-02-28T01:40:08;-4.00;99.90
55369;DHT22;41247;49.736;8.752;2023-02-28T01:47:33;-4.00;99.90
55369;DHT22;41247;49.736;8.752;2023-02-28T01:51:49;-4.00;99.90
55369;DHT22;41247;49.736;8.752;2023-02-28T01:55:31;-4.00;99.90
55369;DHT22;41247;49.736;8.752;2023-02-28T01:59:16;-4.10;99.90
55369;DHT22;41247;49.736;8.752;2023-02-28T02:03:26;-4.10;99.90
55369;DHT22;41247;49.736;8.752;2023-02-28T02:07:07;-4.20;99.90
55369;DHT22;41247;49.736;8.752;2023-02-28T02:10:57;-4.20;99.90
55369;DHT22;41247;49.736;8.752;2023-02-28T02:15:04;-4.20;99.90
55369;DHT22;41247;49.736;8.752;2023-02-28T02:19:00;-4.20;99.90
55369;DHT22;41247;49.736;8.752;2023-02-28T02:23:16;-4.30;99.90
55369;DHT22;41247;49.736;8.752;2023-02-28T02:40:12;-4.40;99.90
55369;DHT22;41247;49.736;8.752;2023-02-28T02:44:11;-4.50;99.90
55369;DHT22;41247;49.736;8.752;2023-02-28T02:47:56;-4.50;99.90
55369;DHT22;41247;49.736;8.752;2023-02-28T02:51:40;-4.50;99.90
55369;DHT22;41247;49.736;8.752;2023-02-28T02:55:22;-4.60;99.90
55369;DHT22;41247;49.736;8.752;2023-02-28T02:59:07;-4.60;99.90
55369;DHT22;41247;49.736;8.752;2023-02-28T03:02:50;-4.50;99.90
55369;DHT22;41247;49.736;8.752;2023-02-28T03:06:32;-4.50;99.90
55369;DHT22;41247;49.736;8.752;2023-02-28T03:10:35;-4.50;99.90
55369;DHT22;41247;49.736;8.752;2023-02-28T03:19:03;-4.60;99.90
55369;DHT22;41247;49.736;8.752;2023-02-28T03:23:02;-4.60;99.90
55369;DHT22;41247;49.736;8.752;2023-02-28T03:35:03;-4.70;99.90
55369;DHT22;41247;49.736;8.752;2023-02-28T03:39:28;-4.80;99.90
55369;DHT22;41247;49.736;8.752;2023-02-28T03:43:07;-4.80;99.90
55369;DHT22;41247;49.736;8.752;2023-02-28T03:46:57;-4.70;99.90
55369;DHT22;41247;49.736;8.752;2023-02-28T03:50:43;-4.80;99.90
55369;DHT22;41247;49.736;8.752;2023-02-28T03:54:31;-4.80;99.90
55369;DHT22;41247;49.736;8.752;2023-02-28T03:58:47;-4.90;99.90
55369;DHT22;41247;49.736;8.752;2023-02-28T04:02:32;-4.90;99.90
55369;DHT22;41247;49.736;8.752;2023-02-28T04:06:16;-5.00;99.90
55369;DHT22;41247;49.736;8.752;2023-02-28T04:09:59;-5.10;99.90
55369;DHT22;41247;49.736;8.752;2023-02-28T04:13:40;-5.10;99.90
55369;DHT22;41247;49.736;8.752;2023-02-28T04:17:20;-5.10;99.90
55369;DHT22;41247;49.736;8.752;2023-02-28T04:21:01;-5.10;99.90
55369;DHT22;41247;49.736;8.752;2023-02-28T04:24:42;-5.10;99.90
55369;DHT22;41247;49.736;8.752;2023-02-28T04:28:22;-5.10;99.90
55369;DHT22;41247;49.736;8.752;2023-02-28T04:32:04;-5.10;99.90
55369;DHT22;41247;49.736;8.752;2023-02-28T04:35:45;-5.10;99.90
55369;DHT22;41247;49.736;8.752;2023-02-28T04:39:26;-5.20;99.90
55369;DHT22;41247;49.736;8.752;2023-02-28T04:43:06;-5.20;99.90
55369;DHT22;41247;49.736;8.752;2023-02-28T04:46:47;-5.30;99.90
55369;DHT22;41247;49.736;8.752;2023-02-28T04:50:28;-5.30;99.90
55369;DHT22;41247;49.736;8.752;2023-02-28T04:54:09;-5.30;99.90
55369;DHT22;41247;49.736;8.752;2023-02-28T04:57:50;-5.30;99.90
55369;DHT22;41247;49.736;8.752;2023-02-28T05:01:34;-5.20;99.90
55369;DHT22;41247;49.736;8.752;2023-02-28T05:05:14;-5.20;99.90
55369;DHT22;41247;49.736;8.752;2023-02-28T05:08:55;-5.20;99.90
55369;DHT22;41247;49.736;8.752;2023-02-28T05:12:36;-5.20;99.90
55369;DHT22;41247;49.736;8.752;2023-02-28T05:16:17;-5.20;99.90
55369;DHT22;41247;49.736;8.752;2023-02-28T05:19:58;-5.20;99.90
55369;DHT22;41247;49.736;8.752;2023-02-28T05:23:38;-5.10;99.90
55369;DHT22;41247;49.736;8.752;2023-02-28T05:27:19;-5.10;99.90
55369;DHT22;41247;49.736;8.752;2023-02-28T05:30:59;-5.10;99.90
55369;DHT22;41247;49.736;8.752;2023-02-28T05:34:41;-5.10;99.90
55369;DHT22;41247;49.736;8.752;2023-02-28T05:38:21;-5.00;99.90
55369;DHT22;41247;49.736;8.752;2023-02-28T05:42:02;-5.00;99.90
55369;DHT22;41247;49.736;8.752;2023-02-28T05:45:43;-4.90;99.90
55369;DHT22;41247;49.736;8.752;2023-02-28T05:49:23;-4.80;99.90
55369;DHT22;41247;49.736;8.752;2023-02-28T05:53:04;-4.80;99.90
55369;DHT22;41247;49.736;8.752;2023-02-28T05:56:44;-4.70;99.90
55369;DHT22;41247;49.736;8.752;2023-02-28T06:00:25;-4.70;99.90
55369;DHT22;41247;49.736;8.752;2023-02-28T06:04:10;-4.60;99.90
55369;DHT22;41247;49.736;8.752;2023-02-28T06:07:51;-4.60;99.90
55369;DHT22;41247;49.736;8.752;2023-02-28T06:11:32;-4.50;99.90
55369;DHT22;41247;49.736;8.752;2023-02-28T06:15:48;-4.40;99.90
55369;DHT22;41247;49.736;8.752;2023-02-28T06:19:51;-4.30;99.90
55369;DHT22;41247;49.736;8.752;2023-02-28T06:23:32;-4.30;99.90
55369;DHT22;41247;49.736;8.752;2023-02-28T06:27:19;-4.20;99.90
55369;DHT22;41247;49.736;8.752;2023-02-28T06:31:17;-4.20;99.90
55369;DHT22;41247;49.736;8.752;2023-02-28T06:35:17;-4.30;99.90
55369;DHT22;41247;49.736;8.752;2023-02-28T06:43:53;-4.30;99.90
55369;DHT22;41247;49.736;8.752;2023-02-28T06:52:07;-4.30;99.90
55369;DHT22;41247;49.736;8.752;2023-02-28T06:55:47;-4.30;99.90
55369;DHT22;41247;49.736;8.752;2023-02-28T06:59:47;-4.30;99.90
55369;DHT22;41247;49.736;8.752;2023-02-28T07:04:08;-4.20;99.90
55369;DHT22;41247;49.736;8.752;2023-02-28T07:07:54;-4.20;99.90
55369;DHT22;41247;49.736;8.752;2023-02-28T07:11:45;-4.20;99.90
55369;DHT22;41247;49.736;8.752;2023-02-28T07:16:03;-4.10;99.90
55369;DHT22;41247;49.736;8.752;2023-02-28T07:20:26;-4.00;99.90
55369;DHT22;41247;49.736;8.752;2023-02-28T07:24:26;-3.90;99.90
55369;DHT22;41247;49.736;8.752;2023-02-28T07:28:41;-3.80;99.90
55369;DHT22;41247;49.736;8.752;2023-02-28T07:32:22;-3.60;99.90
55369;DHT22;41247;49.736;8.752;2023-02-28T07:36:12;-3.50;99.90
55369;DHT22;41247;49.736;8.752;2023-02-28T07:39:56;-3.40;99.90
55369;DHT22;41247;49.736;8.752;2023-02-28T07:43:46;-3.30;99.90
55369;DHT22;41247;49.736;8.752;2023-02-28T07:48:08;-3.20;99.90
55369;DHT22;41247;49.736;8.752;2023-02-28T07:51:49;-3.20;99.90
55369;DHT22;41247;49.736;8.752;2023-02-28T07:56:08;-3.10;99.90
55369;DHT22;41247;49.736;8.752;2023-02-28T07:59:49;-3.00;99.90
55369;DHT22;41247;49.736;8.752;2023-02-28T08:03:29;-2.90;99.90
55369;DHT22;41247;49.736;8.752;2023-02-28T08:07:14;-2.80;99.90
55369;DHT22;41247;49.736;8.752;2023-02-28T08:10:55;-2.70;99.90
55369;DHT22;41247;49.736;8.752;2023-02-28T08:14:36;-2.70;99.90
55369;DHT22;41247;49.736;8.752;2023-02-28T08:18:17;-2.60;99.90
55369;DHT22;41247;49.736;8.752;2023-02-28T08:21:58;-2.60;99.90
55369;DHT22;41247;49.736;8.752;2023-02-28T08:25:39;-2.50;99.90
55369;DHT22;41247;49.736;8.752;2023-02-28T08:29:19;-2.40;99.90
55369;DHT22;41247;49.736;8.752;2023-02-28T08:33:00;-2.40;99.90
55369;DHT22;41247;49.736;8.752;2023-02-28T08:36:41;-2.30;99.90
55369;DHT22;41247;49.736;8.752;2023-02-28T08:40:22;-2.20;99.90
55369;DHT22;41247;49.736;8.752;2023-02-28T08:44:03;-2.10;99.90
55369;DHT22;41247;49.736;8.752;2023-02-28T08:47:43;-2.10;99.90
55369;DHT22;41247;49.736;8.752;2023-02-28T08:51:24;-2.00;99.90
55369;DHT22;41247;49.736;8.752;2023-02-28T08:55:05;-1.90;99.90
55369;DHT22;41247;49.736;8.752;2023-02-28T08:58:47;-1.80;99.90
55369;DHT22;41247;49.736;8.752;2023-02-28T09:02:38;-1.70;99.90
55369;DHT22;41247;49.736;8.752;2023-02-28T09:06:21;-1.50;99.90
55369;DHT22;41247;49.736;8.752;2023-02-28T09:10:03;-1.40;99.90
55369;DHT22;41247;49.736;8.752;2023-02-28T09:13:45;-1.20;99.90
55369;DHT22;41247;49.736;8.752;2023-02-28T09:17:26;-1.20;99.90
55369;DHT22;41247;49.736;8.752;2023-02-28T09:21:11;-1.00;99.90
55369;DHT22;41247;49.736;8.752;2023-02-28T09:24:53;-0.80;99.90
55369;DHT22;41247;49.736;8.752;2023-02-28T09:28:34;-0.50;99.90
55369;DHT22;41247;49.736;8.752;2023-02-28T09:32:14;-0.30;99.90
55369;DHT22;41247;49.736;8.752;2023-02-28T09:36:00;-0.20;99.90
55369;DHT22;41247;49.736;8.752;2023-02-28T09:39:42;-0.20;99.90
55369;DHT22;41247;49.736;8.752;2023-02-28T09:43:31;-0.20;99.90
55369;DHT22;41247;49.736;8.752;2023-02-28T09:47:30;0.00;99.90
55369;DHT22;41247;49.736;8.752;2023-02-28T09:51:28;0.30;99.90
55369;DHT22;41247;49.736;8.752;2023-02-28T09:59:32;0.80;99.90
55369;DHT22;41247;49.736;8.752;2023-02-28T10:08:05;0.80;99.90
55369;DHT22;41247;49.736;8.752;2023-02-28T10:11:19;0.90;99.90
55369;DHT22;41247;49.736;8.752;2023-02-28T10:15:00;0.90;99.90
55369;DHT22;41247;49.736;8.752;2023-02-28T10:19:30;0.90;99.90
55369;DHT22;41247;49.736;8.752;2023-02-28T10:23:21;0.90;99.90
55369;DHT22;41247;49.736;8.752;2023-02-28T10:27:40;1.00;99.90
55369;DHT22;41247;49.736;8.752;2023-02-28T10:31:29;1.00;99.90
55369;DHT22;41247;49.736;8.752;2023-02-28T10:35:20;1.20;99.90
55369;DHT22;41247;49.736;8.752;2023-02-28T10:39:43;1.40;99.90
55369;DHT22;41247;49.736;8.752;2023-02-28T10:43:25;1.60;99.90
55369;DHT22;41247;49.736;8.752;2023-02-28T10:47:15;1.80;99.90
55369;DHT22;41247;49.736;8.752;2023-02-28T10:50:57;2.00;99.90
55369;DHT22;41247;49.736;8.752;2023-02-28T10:54:38;2.40;99.90
55369;DHT22;41247;49.736;8.752;2023-02-28T10:58:42;2.90;99.90
55369;DHT22;41247;49.736;8.752;2023-02-28T11:02:35;3.30;99.90
55369;DHT22;41247;49.736;8.752;2023-02-28T11:06:23;3.60;99.90
55369;DHT22;41247;49.736;8.752;2023-02-28T11:10:06;3.70;99.90
55369;DHT22;41247;49.736;8.752;2023-02-28T11:14:04;3.60;99.90
55369;DHT22;41247;49.736;8.752;2023-02-28T11:17:57;3.50;99.90
55369;DHT22;41247;49.736;8.752;2023-02-28T11:22:00;3.40;99.90
55369;DHT22;41247;49.736;8.752;2023-02-28T11:25:53;3.50;99.90
55369;DHT22;41247;49.736;8.752;2023-02-28T11:29:46;3.70;99.90
55369;DHT22;41247;49.736;8.752;2023-02-28T11:37:19;3.90;99.90
55369;DHT22;41247;49.736;8.752;2023-02-28T11:49:47;3.90;99.90
55369;DHT22;41247;49.736;8.752;2023-02-28T12:10:51;3.00;99.90
55369;DHT22;41247;49.736;8.752;2023-02-28T12:27:17;3.90;99.90
55369;DHT22;41247;49.736;8.752;2023-02-28T12:31:00;4.00;99.90
55369;DHT22;41247;49.736;8.752;2023-02-28T12:38:55;4.10;99.90
55369;DHT22;41247;49.736;8.752;2023-02-28T12:42:51;4.20;99.90
55369;DHT22;41247;49.736;8.752;2023-02-28T12:46:42;4.30;99.90
55369;DHT22;41247;49.736;8.752;2023-02-28T12:50:25;4.20;99.90
55369;DHT22;41247;49.736;8.752;2023-02-28T12:58:25;4.40;99.90
55369;DHT22;41247;49.736;8.752;2023-02-28T13:10:47;4.60;99.90
55369;DHT22;41247;49.736;8.752;2023-02-28T13:18:35;5.10;99.90
55369;DHT22;41247;49.736;8.752;2023-02-28T13:22:49;5.10;99.90
55369;DHT22;41247;49.736;8.752;2023-02-28T13:38:45;4.40;99.90
55369;DHT22;41247;49.736;8.752;2023-02-28T13:46:13;4.40;99.90
55369;DHT22;41247;49.736;8.752;2023-02-28T13:49:54;4.50;99.90
55369;DHT22;41247;49.736;8.752;2023-02-28T13:54:04;4.70;99.90
55369;DHT22;41247;49.736;8.752;2023-02-28T14:02:43;5.10;99.90
55369;DHT22;41247;49.736;8.752;2023-02-28T14:06:36;5.20;99.90
55369;DHT22;41247;49.736;8.752;2023-02-28T14:14:09;5.60;99.90
55369;DHT22;41247;49.736;8.752;2023-02-28T14:18:35;5.50;99.90
55369;DHT22;41247;49.736;8.752;2023-02-28T14:22:39;5.60;99.90
55369;DHT22;41247;49.736;8.752;2023-02-28T14:31:00;5.60;99.90
55369;DHT22;41247;49.736;8.752;2023-02-28T14:39:22;5.50;99.90
55369;DHT22;41247;49.736;8.752;2023-02-28T14:43:06;5.60;99.90
55369;DHT22;41247;49.736;8.752;2023-02-28T14:47:01;5.60;99.90
55369;DHT22;41247;49.736;8.752;2023-02-28T14:50:54;5.80;99.90
55369;DHT22;41247;49.736;8.752;2023-02-28T14:54:37;6.30;99.90
55369;DHT22;41247;49.736;8.752;2023-02-28T14:58:32;7.10;99.90
55369;DHT22;41247;49.736;8.752;2023-02-28T15:02:22;8.80;99.90
55369;DHT22;41247;49.736;8.752;2023-02-28T15:06:16;10.10;99.90
55369;DHT22;41247;49.736;8.752;2023-02-28T15:10:27;11.00;99.90
55369;DHT22;41247;49.736;8.752;2023-02-28T15:14:15;12.20;99.90
55369;DHT22;41247;49.736;8.752;2023-02-28T15:17:59;13.00;99.90
55369;DHT22;41247;49.736;8.752;2023-02-28T15:21:43;13.00;99.90
55369;DHT22;41247;49.736;8.752;2023-02-28T15:25:26;13.20;99.90
55369;DHT22;41247;49.736;8.752;2023-02-28T15:29:15;13.60;99.90
55369;DHT22;41247;49.736;8.752;2023-02-28T15:33:15;13.80;99.90
55369;DHT22;41247;49.736;8.752;2023-02-28T15:36:59;13.70;99.90
55369;DHT22;41247;49.736;8.752;2023-02-28T15:40:42;12.90;99.90
55369;DHT22;41247;49.736;8.752;2023-02-28T15:44:33;11.60;99.90
55369;DHT22;41247;49.736;8.752;2023-02-28T15:48:20;11.80;99.90
55369;DHT22;41247;49.736;8.752;2023-02-28T15:52:04;11.00;99.90
55369;DHT22;41247;49.736;8.752;2023-02-28T15:55:55;9.30;99.90
55369;DHT22;41247;49.736;8.752;2023-02-28T15:59:39;8.80;99.90
55369;DHT22;41247;49.736;8.752;2023-02-28T16:03:43;8.10;99.90
55369;DHT22;41247;49.736;8.752;2023-02-28T16:07:26;6.80;99.90
55369;DHT22;41247;49.736;8.752;2023-02-28T16:11:09;6.10;99.90
55369;DHT22;41247;49.736;8.752;2023-02-28T16:14:52;5.60;99.90
55369;DHT22;41247;49.736;8.752;2023-02-28T16:18:33;5.50;99.90
55369;DHT22;41247;49.736;8.752;2023-02-28T16:22:14;5.80;99.90
55369;DHT22;41247;49.736;8.752;2023-02-28T16:25:54;5.80;99.90
55369;DHT22;41247;49.736;8.752;2023-02-28T16:29:36;7.50;99.90
55369;DHT22;41247;49.736;8.752;2023-02-28T16:33:17;9.40;99.90
55369;DHT22;41247;49.736;8.752;2023-02-28T16:36:57;10.40;99.90
55369;DHT22;41247;49.736;8.752;2023-02-28T16:40:38;8.60;99.90
55369;DHT22;41247;49.736;8.752;2023-02-28T16:44:35;6.70;99.90
55369;DHT22;41247;49.736;8.752;2023-02-28T16:48:16;5.40;99.90
55369;DHT22;41247;49.736;8.752;2023-02-28T16:51:57;4.60;99.90
55369;DHT22;41247;49.736;8.752;2023-02-28T16:55:37;4.00;99.90
55369;DHT22;41247;49.736;8.752;2023-02-28T16:59:26;3.60;99.90
55369;DHT22;41247;49.736;8.752;2023-02-28T17:03:21;3.20;99.90
55369;DHT22;41247;49.736;8.752;2023-02-28T17:07:03;2.90;99.90
55369;DHT22;41247;49.736;8.752;2023-02-28T17:10:43;2.60;99.90
55369;DHT22;41247;49.736;8.752;2023-02-28T17:14:24;2.30;99.90
55369;DHT22;41247;49.736;8.752;2023-02-28T17:18:05;2.00;99.90
55369;DHT22;41247;49.736;8.752;2023-02-28T17:21:47;1.80;99.90
55369;DHT22;41247;49.736;8.752;2023-02-28T17:25:27;1.60;99.90
55369;DHT22;41247;49.736;8.752;2023-02-28T17:29:16;1.40;99.90
55369;DHT22;41247;49.736;8.752;2023-02-28T17:32:59;1.20;99.90
55369;DHT22;41247;49.736;8.752;2023-02-28T17:36:39;1.10;99.90
55369;DHT22;41247;49.736;8.752;2023-02-28T17:40:22;0.90;99.90
55369;DHT22;41247;49.736;8.752;2023-02-28T17:44:03;0.80;99.90
55369;DHT22;41247;49.736;8.752;2023-02-28T17:47:47;0.60;99.90
55369;DHT22;41247;49.736;8.752;2023-02-28T17:51:29;0.40;99.90
55369;DHT22;41247;49.736;8.752;2023-02-28T17:55:10;0.20;99.90
55369;DHT22;41247;49.736;8.752;2023-02-28T17:58:55;0.10;99.90
55369;DHT22;41247;49.736;8.752;2023-02-28T18:02:36;0.10;99.90
55369;DHT22;41247;49.736;8.752;2023-02-28T18:06:23;0.00;99.90
55369;DHT22;41247;49.736;8.752;2023-02-28T18:10:07;0.00;99.90
55369;DHT22;41247;49.736;8.752;2023-02-28T18:13:53;-0.10;99.90
55369;DHT22;41247;49.736;8.752;2023-02-28T18:17:34;-0.20;99.90
55369;DHT22;41247;49.736;8.752;2023-02-28T18:21:16;-0.30;99.90
55369;DHT22;41247;49.736;8.752;2023-02-28T18:24:56;-0.40;99.90
55369;DHT22;41247;49.736;8.752;2023-02-28T18:28:37;-0.50;99.90
55369;DHT22;41247;49.736;8.752;2023-02-28T18:32:18;-0.50;99.90
55369;DHT22;41247;49.736;8.752;2023-02-28T18:35:58;-0.60;99.90
55369;DHT22;41247;49.736;8.752;2023-02-28T18:39:39;-0.70;99.90
55369;DHT22;41247;49.736;8.752;2023-02-28T18:43:20;-0.70;99.90
55369;DHT22;41247;49.736;8.752;2023-02-28T18:47:00;-0.80;99.90
55369;DHT22;41247;49.736;8.752;2023-02-28T18:50:41;-0.80;99.90
55369;DHT22;41247;49.736;8.752;2023-02-28T18:54:22;-0.90;99.90
55369;DHT22;41247;49.736;8.752;2023-02-28T18:58:03;-0.90;99.90
55369;DHT22;41247;49.736;8.752;2023-02-28T19:01:43;-1.00;99.90
55369;DHT22;41247;49.736;8.752;2023-02-28T19:05:24;-1.10;99.90
55369;DHT22;41247;49.736;8.752;2023-02-28T19:09:05;-1.20;99.90
55369;DHT22;41247;49.736;8.752;2023-02-28T19:12:46;-1.20;99.90
55369;DHT22;41247;49.736;8.752;2023-02-28T19:16:27;-1.30;99.90
55369;DHT22;41247;49.736;8.752;2023-02-28T19:20:09;-1.30;99.90
55369;DHT22;41247;49.736;8.752;2023-02-28T19:23:50;-1.40;99.90
55369;DHT22;41247;49.736;8.752;2023-02-28T19:27:30;-1.40;99.90
55369;DHT22;41247;49.736;8.752;2023-02-28T19:31:19;-1.50;99.90
55369;DHT22;41247;49.736;8.752;2023-02-28T19:35:02;-1.60;99.90
55369;DHT22;41247;49.736;8.752;2023-02-28T19:38:43;-1.60;99.90
55369;DHT22;41247;49.736;8.752;2023-02-28T19:42:24;-1.70;99.90
55369;DHT22;41247;49.736;8.752;2023-02-28T19:46:06;-1.70;99.90
55369;DHT22;41247;49.736;8.752;2023-02-28T19:49:47;-1.80;99.90
55369;DHT22;41247;49.736;8.752;2023-02-28T19:53:32;-1.80;99.90
55369;DHT22;41247;49.736;8.752;2023-02-28T19:57:14;-1.80;99.90
55369;DHT22;41247;49.736;8.752;2023-02-28T20:00:55;-1.70;99.90
55369;DHT22;41247;49.736;8.752;2023-02-28T20:04:36;-1.70;99.90
55369;DHT22;41247;49.736;8.752;2023-02-28T20:08:16;-1.70;99.90
55369;DHT22;41247;49.736;8.752;2023-02-28T20:11:57;-1.80;99.90
55369;DHT22;41247;49.736;8.752;2023-02-28T20:15:37;-1.80;99.90
55369;DHT22;41247;49.736;8.752;2023-02-28T20:19:18;-1.90;99.90
55369;DHT22;41247;49.736;8.752;2023-02-28T20:22:59;-1.90;99.90
55369;DHT22;41247;49.736;8.752;2023-02-28T20:26:39;-2.00;99.90
55369;DHT22;41247;49.736;8.752;2023-02-28T20:30:20;-2.00;99.90
55369;DHT22;41247;49.736;8.752;2023-02-28T20:34:01;-2.00;99.90
55369;DHT22;41247;49.736;8.752;2023-02-28T20:37:41;-2.00;99.90
55369;DHT22;41247;49.736;8.752;2023-02-28T20:41:22;-2.10;99.90
55369;DHT22;41247;49.736;8.752;2023-02-28T20:45:03;-2.10;99.90
55369;DHT22;41247;49.736;8.752;2023-02-28T20:48:43;-2.10;99.90
55369;DHT22;41247;49.736;8.752;2023-02-28T20:52:24;-2.20;99.90
55369;DHT22;41247;49.736;8.752;2023-02-28T20:56:11;-2.20;99.90
55369;DHT22;41247;49.736;8.752;2023-02-28T20:59:53;-2.20;99.90
55369;DHT22;41247;49.736;8.752;2023-02-28T21:03:33;-2.30;99.90
55369;DHT22;41247;49.736;8.752;2023-02-28T21:07:14;-2.30;99.90
55369;DHT22;41247;49.736;8.752;2023-02-28T21:10:55;-2.40;99.90
55369;DHT22;41247;49.736;8.752;2023-02-28T21:14:35;-2.40;99.90
55369;DHT22;41247;49.736;8.752;2023-02-28T21:18:16;-2.40;99.90
55369;DHT22;41247;49.736;8.752;2023-02-28T21:21:56;-2.50;99.90
55369;DHT22;41247;49.736;8.752;2023-02-28T21:25:37;-2.50;99.90
55369;DHT22;41247;49.736;8.752;2023-02-28T21:29:18;-2.50;99.90
55369;DHT22;41247;49.736;8.752;2023-02-28T21:32:58;-2.50;99.90
55369;DHT22;41247;49.736;8.752;2023-02-28T21:36:41;-2.50;99.90
55369;DHT22;41247;49.736;8.752;2023-02-28T21:40:22;-2.50;99.90
55369;DHT22;41247;49.736;8.752;2023-02-28T21:44:03;-2.60;99.90
55369;DHT22;41247;49.736;8.752;2023-02-28T21:47:44;-2.60;99.90
55369;DHT22;41247;49.736;8.752;2023-02-28T21:51:28;-2.60;99.90
55369;DHT22;41247;49.736;8.752;2023-02-28T21:55:09;-2.60;99.90
55369;DHT22;41247;49.736;8.752;2023-02-28T21:58:50;-2.70;99.90
55369;DHT22;41247;49.736;8.752;2023-02-28T22:02:31;-2.70;99.90
55369;DHT22;41247;49.736;8.752;2023-02-28T22:06:23;-2.70;99.90
55369;DHT22;41247;49.736;8.752;2023-02-28T22:10:06;-2.70;99.90
55369;DHT22;41247;49.736;8.752;2023-02-28T22:13:51;-2.70;99.90
55369;DHT22;41247;49.736;8.752;2023-02-28T22:17:32;-2.60;99.90
55369;DHT22;41247;49.736;8.752;2023-02-28T22:21:14;-2.70;99.90
55369;DHT22;41247;49.736;8.752;2023-02-28T22:24:56;-2.70;99.90
55369;DHT22;41247;49.736;8.752;2023-02-28T22:28:37;-2.70;99.90
55369;DHT22;41247;49.736;8.752;2023-02-28T22:32:18;-2.70;99.90
55369;DHT22;41247;49.736;8.752;2023-02-28T22:36:04;-2.70;99.90
55369;DHT22;41247;49.736;8.752;2023-02-28T22:39:46;-2.70;99.90
55369;DHT22;41247;49.736;8.752;2023-02-28T22:43:26;-2.80;99.90
55369;DHT22;41247;49.736;8.752;2023-02-28T22:47:07;-2.70;99.90
55369;DHT22;41247;49.736;8.752;2023-02-28T22:50:48;-2.70;99.90
55369;DHT22;41247;49.736;8.752;2023-02-28T22:54:28;-2.70;99.90
55369;DHT22;41247;49.736;8.752;2023-02-28T22:58:09;-2.70;99.90
55369;DHT22;41247;49.736;8.752;2023-02-28T23:01:49;-2.70;99.90
55369;DHT22;41247;49.736;8.752;2023-02-28T23:05:30;-2.70;99.90
55369;DHT22;41247;49.736;8.752;2023-02-28T23:09:13;-2.70;99.90
55369;DHT22;41247;49.736;8.752;2023-02-28T23:12:55;-2.70;99.90
55369;DHT22;41247;49.736;8.752;2023-02-28T23:16:37;-2.80;99.90
55369;DHT22;41247;49.736;8.752;2023-02-28T23:20:28;-2.80;99.90
55369;DHT22;41247;49.736;8.752;2023-02-28T23:24:11;-2.80;99.90
55369;DHT22;41247;49.736;8.752;2023-02-28T23:27:53;-2.90;99.90
55369;DHT22;41247;49.736;8.752;2023-02-28T23:31:34;-2.80;99.90
55369;DHT22;41247;49.736;8.752;2023-02-28T23:35:14;-2.80;99.90
55369;DHT22;41247;49.736;8.752;2023-02-28T23:38:55;-2.90;99.90
55369;DHT22;41247;49.736;8.752;2023-02-28T23:42:36;-2.90;99.90
55369;DHT22;41247;49.736;8.752;2023-02-28T23:46:17;-2.90;99.90
55369;DHT22;41247;49.736;8.752;2023-02-28T23:49:58;-3.00;99.90
55369;DHT22;41247;49.736;8.752;2023-02-28T23:53:42;-3.00;99.90
55369;DHT22;41247;49.736;8.752;2023-02-28T23:57:24;-3.00;99.90
